AK Observations

PABR 261911Z 06017KT 3SM -SN BR OVC006 M05/M06 A3003 RMK AO2 P0000 T10501056 CHINO NE VISNO NE $ PACZ 261912Z AUTO 33016KT 10SM -SN OVC007 01/M01 A2985 RMK AO2 SLP115 PADU 261912Z 31013KT 10SM -RA SCT014 OVC018 05/02 A3010 RMK AO2 RAB12 CS P0000 PAED 261911Z AUTO 00000KT 10SM BKN050 OVC060 11/02 A2965 RMK AO2 SLP036 PAEM 261907Z AUTO 31011KT 10SM BKN012 OVC032 03/00 A2981 RMK AO2 RAE04 P0000 PAFE 261918Z AUTO 11009KT 10SM -RA BKN027 OVC035 07/06 A2971 RMK AO2 P0001 $ PAHO 261918Z 26007KT 230V290 10SM RA BKN040 BKN050 OVC070 08/07 A2969 RMK AO2 P0004 T00830067 PAMD 261912Z AUTO 06015KT 10SM SCT014 08/05 A2961 RMK AO2 PAMO 261908Z AUTO 32014KT 10SM FEW017 OVC029 03/M02 A2981 RMK AO2 RAB1817E1835SNE1814 SLP098 P0000 T00281017 PAOH 261913Z AUTO 07008G16KT 10SM -RA FEW024 OVC029 07/06 A2966 RMK AO2 P0001 PAOH 261921Z AUTO 07008KT 10SM -RA OVC031 07/06 A2966 RMK AO2 P0002 PAQT 261913Z AUTO 05016KT 3SM -SN BR BKN008 OVC021 M04/M06 A2999 RMK AO2 P0000 T10441056 TSNO PASM 261912Z AUTO 33010KT 10SM FEW010 SCT015 BKN022 03/M02 A2981 RMK AO2 RAE1810B1828E07UPB1810E1814 P0000 PATC 261918Z AUTO 02019KT 2SM -SHSN BKN009 M02/M02 A2981 RMK AO2 SLP099 $ PAVA 261915Z AUTO 31021KT 10SM SCT012 OVC023 03/01 A2987 RMK AO2 PAVA 261922Z AUTO 31022KT 10SM BKN010 BKN016 OVC023 02/01 A2987 RMK AO2 FZRANO PFEL 261911Z AUTO 05008KT 10SM SCT013 OVC065 04/01 A2977 RMK AO2 PAAD 261915Z AUTO 06017G21KT 7SM OVC003 M05/M06 A2995 RMK AO2 T10511059 PAUT 261915Z AUTO 30023G29KT 7SM SCT008 BKN013 OVC020 04/03 A3003 RMK AO2 T00410025 PAAK 261856Z AUTO 29012KT 10SM SCT008 OVC015 05/03 A3024 RMK AO2 RAE00 SLP242 P0000 T00500028 PAAQ 261853Z VRB04KT 10SM FEW055 BKN200 11/03 A2964 RMK AO2 SLP039 T01060028 PABA 261852Z 06014KT 10SM OVC006 M04/M06 A2998 RMK AO2 SNB21E31 SLP139 P0000 T10441056 FZRANO PABE 261853Z 31011KT 10SM OVC020 04/M01 A2982 RMK AO2 SLP099 T00391011 PABI 261853Z 32004KT 10SM FEW040 SCT075 SCT200 13/01 A2962 RMK AO2 SLP034 SHRA DSNT ALQDS T01330011 $ PABL 261856Z AUTO 33007KT 10SM OVC009 02/M01 A2980 RMK AO2 SLP092 T00221011 FZRANO PABR 261903Z 06015KT 1SM R07/3000VP6000FT -SN BR OVC006 M05/M06 A3003 RMK AO2 VIS 1/2V2 P0000 T10501056 CHINO NE VISNO NE $ PABR 261853Z 06015KT 2 1/2SM -SN BR OVC006 M05/M06 A3003 RMK AO2 SLP170 P0000 T10501061 CHINO NE VISNO NE $ PABT 261853Z 28005KT 10SM -RA SCT044 BKN060 BKN100 11/06 A2968 RMK AO2 RAB43 SLP057 P0000 T01060056 PABV 261856Z AUTO 00000KT 10SM OVC050 10/01 A2967 RMK AO2 SLP054 T01000011 PNO $ PACD 261853Z 31018KT 1 1/2SM -RA BR BKN005 OVC013 05/05 A2992 RMK AO2 SLP134 P0003 T00500050 PACM 261856Z AUTO 28018KT 10SM BKN020 OVC026 03/M01 A2989 RMK AO2 SLP117 T00281011 PACV 261853Z 22006KT 10SM SCT030 SCT050 BKN110 09/03 A2964 RMK AO2 SLP036 T00940028 PACZ 261855Z AUTO 33016KT 3SM -RASN OVC007 01/00 A2985 RMK AO2 SHRASNB1748E1801 SLP114 T00051004 PADE 261853Z AUTO 29010KT 10SM OVC017 03/00 A2976 RMK AO2 SLP079 T00280000 TSNO $ PADK 261856Z AUTO 25006KT 10SM OVC019 06/02 A3028 RMK AO2 SLP252 T00560017 PADL 261856Z 17005KT 10SM FEW090 11/04 A2971 RMK AO2 SLP066 T01060044 PADM 261902Z AUTO 30010KT 10SM BKN017 OVC035 03/M01 A2984 RMK AO2 SLP114 T00331011 PADQ 261853Z 35006KT 10SM -RA FEW017 BKN028 OVC034 07/04 A2966 RMK AO2 SLP045 P0001 T00720039 PADU 261856Z 31013KT 10SM SCT014 OVC018 05/01 A3010 RMK AO2 SLP196 CS T00500011 PAEC 261850Z 00000KT 30SM FEW150 09/M01 A2960 RMK NOSPECI PAED 261856Z AUTO 00000KT 10SM SCT050 OVC060 10/02 A2965 RMK AO2 RAB06E16 SLP036 P0000 T01030022 PAEG 261853Z AUTO VRB03KT 10SM BKN048 12/06 A2959 RMK AO2 SLP026 T01220056 TSNO PAEI 261856Z AUTO 00000KT 10SM CLR 15/03 A2960 RMK AO2 SLP028 T01500032 PAEL 261852Z 10009KT 15SM -RA BKN017 OVC035 07/05 A2961 RMK SPB E03015KT NOSPECI PAEM 261856Z AUTO 32014G18KT 10SM -RA SCT013 OVC032 02/00 A2981 RMK AO2 RAE23B45 SLP152 P0000 T00220000 FZRANO PAEN 261853Z 33005KT 10SM FEW075 OVC090 10/04 A2967 RMK AO2 SLP050 T01000039 PAFA 261853Z 13003KT 10SM FEW046 SCT090 SCT250 16/04 A2961 RMK AO2 SLP030 TCU DSNT SE AND VC SW SH DSNT N AND DSNT SW T01560039 $ PAFB 261858Z AUTO 21003KT 10SM CLR 15/04 A2961 RMK AO2 SLP030 T01470040 $ PAFE 261856Z AUTO 11010KT 10SM -RA SCT028 BKN034 OVC044 07/05 A2971 RMK AO2 SLP073 P0003 T00720050 $ PAFM 261851Z AUTO 20008KT 10SM CLR 08/01 A2976 RMK AO2 SLP094 T00780006 $ PAFS 261901Z AUTO 00000KT 10SM CLR 13/04 A2965 RMK AO2 SLP060 T01330044 PAGA 261856Z AUTO 25005KT 10SM BKN075 OVC095 09/04 A2971 RMK AO2 SLP061 T00940044 PAGK 261853Z AUTO 33007KT 300V360 10SM CLR 12/00 A2957 RMK AO2 SLP019 T01220000 TSNO PAGM 261856Z AUTO 00000KT 10SM OVC023 03/M01 A2993 RMK AO2 RAB05E16 SLP140 P0000 T00281006 PAGN 261856Z AUTO 11013G19KT 10SM -RA FEW033 OVC070 08/04 A2970 RMK AO2 SLP046 P0000 T00780039 PAGS 261856Z AUTO 09007G15KT 10SM -RA BKN039 OVC049 09/04 A2969 RMK AO2 RAB26 SLP054 P0000 T00890039 PAGY 261853Z AUTO 21008KT 10SM SCT043 OVC060 09/04 A2971 RMK AO2 RAE02 SLP061 P0000 T00890044 TSNO PAHL 261856Z AUTO VRB04KT 10SM BKN075 11/03 A2970 RMK AO2 SLP067 T01110028 PAHN 261854Z AUTO 08008KT 10SM -RA BKN060 OVC075 09/06 A2971 RMK AO2 SLP061 P0000 T00940056 TSNO PAHO 261859Z 26009KT 10SM RA SCT025 OVC033 07/04 A2968 RMK AO2 P0002 T00720044 PAHO 261853Z COR 24009KT 10SM RA SCT025 OVC030 07/04 A2969 RMK AO2 SLP053 P0004 T00720044 PAHP 261856Z AUTO 32018KT 10SM BKN013 BKN018 OVC022 02/M01 A2988 RMK AO2 RAB06E38 SLP156 P0000 T00221006 FZRANO PAHY 261903Z AUTO 10018G30KT 2SM -RA BR OVC010 08/07 A2972 RMK AO2 PK WND 12030/1901 P0000 $ PAHY 261856Z AUTO 12016G40KT 1 3/4SM -RA BR SQ OVC010 08/07 A2972 RMK AO2 PK WND 13040/1851 SLP165 P0006 T00780067 $ PAIG 261856Z AUTO 03006KT 10SM CLR 09/03 A2970 RMK AO2 SLP069 T00890033 $ PAII 261856Z AUTO 36005KT 10SM CLR 12/04 A2970 RMK AO2 SLP062 T01170039 PAIL 261853Z 15007KT 10SM BKN046 09/04 A2971 RMK AO2 SLP061 T00940039 PAIM 261855Z AUTO 00000KT 10SM CLR 14/M02 A2966 RMK AO2 SLP042 T01361021 PAIN 261856Z AUTO 03009KT 10SM CLR 13/M03 A2959 RMK AO2 SLP036 T01331033 PAJC 261857Z AUTO 25010KT 10SM FEW031 OVC047 08/05 A2975 RMK AO2 RAE47 SLP074 P0001 T00780050 PAJN 261853Z 13015KT 10SM -RA FEW009 BKN050 OVC095 08/06 A2970 RMK AO2 RAB32 SLP057 P0000 T00830056 PAJZ 261856Z AUTO VRB03KT 6SM HZ CLR 14/04 A2974 RMK AO2 SLP079 T01390044 $ PAKH 261856Z AUTO 10SM FEW042 08/04 A2966 RMK AO2 SLP046 T00830039 $ PAKK 261856Z AUTO VRB03KT 10SM -RA SCT010 OVC055 04/01 A2972 RMK AO2 RAB48 SLP080 P0000 T00440011 PAKN 261854Z 10SM CLR 13/01 A2966 RMK AO2 SLP042 T01280006 PAKP 261856Z AUTO 04009KT 10SM FEW047 SCT060 BKN090 01/M03 A2973 RMK AO2 UPE03 SLP108 P0000 T00111028 FZRANO PAKT 261853Z 13024G31KT 4SM RA OVC012 08/05 A2981 RMK AO2 PK WND 12033/1817 SLP094 HARBOR WIND 10025KT ROOF WIND 11030G40KT P0014 T00780050 PAKU 261846Z 06017KT 2SM R06/P6000FT BR SCT007 OVC017 M06/M06 A2997 PAKV 261853Z AUTO 00000KT 10SM CLR 12/ A2972 RMK SLP066 T0122 TSNO $ VIA AUTODIAL PAKW 261853Z AUTO 16012G22KT 9SM -RA OVC050 09/07 A2968 RMK SLP051 P0001 T00890067 TSNO VIA AUTODIAL PALG 261903Z AUTO 26006KT 10SM OVC011 05/03 A2976 RMK AO2 PWINO PALG 261856Z AUTO 24007KT 10SM OVC009 05/03 A2976 RMK AO2 SLP082 T00500028 PWINO PALH 261853Z 17005KT 10SM OVC065 11/02 A2966 RMK AO2 SLP046 T01110017 PALJ 261858Z 00000KT 30SM BKN100 13/06 A2968 RMK EST PASS OPEN NOSPECI PALP 261845Z 06015KT 4SM -SN BR OVC008 M04/M07 A2998 PALU 261855Z AUTO 07017KT 6SM OVC010 M01/M02 A2981 RMK AO2 SLP094 T10091024 $ PAMB 261856Z AUTO 00000KT 10SM CLR 12/03 A2971 RMK AO2 SLP067 T01170028 $ PAMC 261853Z 00000KT 10SM FEW050 14/04 A2966 RMK AO2 RAB34E53 SLP048 P0000 T01390044 PAMD 261851Z AUTO 06014KT 10SM BKN014 08/05 A2962 RMK AO2 SLP020 T00780050 PAMH 261856Z AUTO VRB03KT 10SM CLR A2964 RMK AO2 SLPNO FZRANO $ PAMK 261856Z AUTO 21007KT 10SM OVC012 04/01 A2977 RMK AO2 SLP086 T00390011 $ PAMM 261856Z AUTO 13013G24KT 080V160 7SM -RA OVC027 08/04 A2982 RMK AO2 SLP088 P0011 T00780044 PAMO 261902Z AUTO 32015KT 10SM SCT017 OVC029 03/M01 A2981 RMK AO2 RAB1817E1835SNE1814 P0000 PAMR 261853Z 27003KT 10SM OVC065 11/02 A2966 RMK AO2 SLP043 T01060022 PANC 261853Z 17007KT 10SM FEW055 BKN065 BKN100 BKN200 11/02 A2966 RMK AO2 SLP043 SH DSNT NE-SE T01110017 PANI 261856Z AUTO 26008KT 10SM BKN013 OVC021 08/04 A2974 RMK AO2 SLP040 T00780044 PANN 261853Z AUTO VRB03KT 10SM CLR 16/05 A2957 RMK AO2 SLP020 T01560050 TSNO $ PANW 261856Z AUTO 21006KT 10SM CLR 11/03 A2971 RMK AO2 SLP078 T01110028 PNO $ PAOH 261856Z AUTO 08011KT 10SM -RA BKN031 OVC042 07/06 A2967 RMK AO2 SLP048 P0002 T00720056 PAOM 261853Z 22008KT 10SM FEW025 SCT180 04/M01 A2975 RMK SLP074 T00391006 $ VIA AUTODIAL PAOO 261856Z AUTO 31014G23KT 10SM -RA FEW011 BKN017 OVC025 03/01 A2989 RMK AO2 SLP131 P0000 T00280006 PAOR 261853Z 00000KT 10SM FEW095 SCT120 14/01 A2954 RMK AO2 SLP010 T01390011 PAOT 261903Z 23007KT 5SM BR OVC006 01/00 A2976 RMK AO2 T00060000 PAOT 261853Z 22007KT 3SM BR OVC004 01/00 A2976 RMK AO2 SLP079 T00060000 PAOU 261856Z AUTO 32018KT 7SM BKN010 BKN025 OVC031 06/04 A2985 RMK AO2 SLP107 T00610039 PAPB 261853Z AUTO 32012KT 10SM OVC009 05/03 A3010 RMK AO2 CIG 006V015 SLP182 T00500033 TSNO PAPG 261856Z 11010G15KT 040V160 10SM -RA FEW016 BKN030 OVC037 08/04 A2975 RMK AO2 PK WND 09028/1831 SLP078 P0001 T00830039 PAPH 261856Z AUTO 28011KT 10SM SCT004 SCT060 BKN085 08/06 A2975 RMK AO2 RAE04 SLP076 P0000 T00780061 PAPN 261856Z AUTO 30012KT 10SM SCT038 OVC095 10/06 A2970 RMK AO2 SLP057 T01000061 PAPO 261856Z AUTO 02005KT 10SM CLR A2974 RMK AO2 SLPNO FZRANO $ PAPT 261856Z 00000KT 25SM FEW250 13/10 A2960 RMK NO SPECI PAQT 261900Z AUTO 05016KT 1 3/4SM -SN BR BKN007 OVC019 M04/M06 A2999 RMK AO2 P0000 T10441056 TSNO PAQT 261853Z AUTO 05014KT 4SM -SN BR BKN007 OVC017 M04/M06 A2999 RMK AO2 SNB45 SLP155 P0000 T10441056 TSNO PARC 261856Z AUTO 15006KT 10SM -RA FEW018 BKN025 OVC035 07/03 A2969 RMK AO2 RAB43 SLP087 P0000 T00670033 PARS 261856Z AUTO 32005KT 10SM BKN022 OVC031 04/01 A2977 RMK AO2 SLP086 T00390006 $ PARY 261856Z AUTO 30005KT 10SM FEW070 11/07 A2967 RMK AO2 SLP078 T01060067 PASA 261856Z AUTO 33009KT 10SM BKN015 OVC022 01/M02 A2993 RMK AO2 SLP136 T00061022 FZRANO $ PASC 261853Z 05019KT 5SM R06/6000VP6000FT BR OVC007 M04/M06 A2995 RMK AO2 SLP143 T10391056 PASD 261856Z 35015KT 10SM FEW016 SCT022 BKN038 08/04 A2981 RMK AO2 SLP096 T00780039 PNO $ PASI 261853Z 12015G21KT 10SM OVC055 09/03 A2956 RMK AO2 RAB39E49 SLP010 P0000 T00940028 PASK 261856Z AUTO 26011KT 10SM OVC004 01/01 A2979 RMK AO2 SLP084 T00110006 FZRANO $ PASL 261902Z AUTO 00000KT 10SM FEW095 13/04 A2972 RMK AO2 SLP061 T01330044 PASM 261902Z AUTO 31010KT 10SM -RA BKN013 BKN018 OVC029 02/00 A2981 RMK AO2 RAE1810B1828UPB1810E1814 P0000 FZRANO PASN 261853Z AUTO 33014KT 10SM OVC008 03/03 A3009 RMK AO2 SLP189 T00330028 TSNO PASO 261853Z AUTO VRB03KT 10SM BKN055 OVC065 08/03 A2968 RMK AO2 SLP052 T00780033 TSNO PASV 261855Z AUTO 32007KT 280V360 10SM CLR 10/03 A2965 RMK AO2 PK WND 260394/1841 SLP044 T01010034 PASX 261856Z AUTO 26005KT 10SM FEW085 10/02 A2968 RMK AO2 SLP062 T01000017 PASY 261858Z AUTO 13013KT 7SM OVC020 05/02 A3016 RMK AO2 SLP217 PATA 261852Z 25004KT 10SM BKN100 13/07 A2965 RMK AO2 SLP043 T01280072 PATC 261855Z AUTO 02018KT 10SM BKN010 M02/M02 A2981 RMK AO2 SLP099 T10171025 $ PATG 261856Z AUTO 32004KT 10SM CLR 11/04 A2974 RMK AO2 SLP165 T01110044 PATK 261853Z 18004KT 10SM FEW040 11/02 A2965 RMK SLP043 T01110017 VIA AUTODIAL PATL 261855Z AUTO 00000KT 10SM CLR 13/03 A2969 RMK AO2 SLP055 T01280032 PATO 261853Z AUTO 00000KT 10SM BKN080 OVC090 09/03 A2967 RMK AO2 SLP048 T00940033 TSNO PAUN 261856Z AUTO 26005KT 10SM OVC015 04/01 A2977 RMK AO2 SLP086 T00440011 PAVC 261856Z AUTO 26014G30KT 4SM -RA BKN015 OVC020 06/03 A2987 RMK AO2 PK WND 27030/1852 SLP121 P0000 T00560028 PAVD 261856Z 00000KT 10SM SCT023 SCT055 BKN080 08/03 A2965 RMK AO2 SLP066 T00780033 PAVL 261853Z AUTO 14011KT 8SM OVC003 06/02 A2972 RMK AO2 SLP065 T00560022 TSNO PAWD 261853Z AUTO 01006KT 10SM BKN041 12/02 A2964 RMK AO2 SLP037 T01170017 TSNO PAWG 261856Z 10013KT 10SM -RA BKN045 OVC065 08/04 A2978 RMK (KB) PAWI 261853Z AUTO 06017KT 4SM BR OVC008 M04/M06 A2997 RMK AO2 SLP148 T10441056 TSNO PAWS 261856Z AUTO 25009KT 10SM FEW050 12/00 A2966 RMK AO2 SLP058 T01220000 PAYA 261853Z AUTO 09007KT 10SM SCT055 BKN070 OVC085 09/04 A2961 RMK AO2 SLP026 T00940039 TSNO PAZK 261856Z AUTO VRB06KT 10SM SCT041 BKN080 08/M01 A2956 RMK AO2 SLP035 T00781011 PFYU 261856Z 04011KT 10SM FEW060 BKN100 08/M01 A2973 RMK AO2 SLP094 T00781006 PPIZ 261856Z AUTO 05022G27KT 9SM OVC007 M03/M04 A2988 RMK AO2 PK WND 05028/1850 SNB41E51 SLP121 P0000 T10281039 FZRANO TSNO PAFR 261858Z AUTO 18003KT 9SM OVC043 10/02 A2963 RMK AO2 RAB18E39 SLP040 P0000 T01010017 PAGH 261856Z AUTO 25009KT 10SM BKN075 06/01 A2975 RMK AO2 SLP079 T00610011 PAIK 261856Z AUTO 21005KT 10SM CLR 04/01 A2977 RMK AO2 SLP087 T00440006 PAIW 261903Z AUTO 01011KT 7SM -SN BKN014 OVC020 00/M02 A2986 RMK AO2 P0000 FZRANO PAIW 261856Z AUTO 01010KT 2 1/2SM -SN BR BKN016 OVC020 M01/M02 A2986 RMK AO2 VIS 1 1/2V5 UPB16E46SNE00B18E27B46 SLP113 P0000 T10061022 FZRANO PAKF 261856Z AUTO 30008G25KT 250V360 5SM -RA BKN019 OVC024 04/01 A2994 RMK AO2 SLP138 P0001 T00440006 PATE 261856Z AUTO 01008KT 10SM OVC015 00/M03 A2980 RMK AO2 SLP099 T00001028 FZRANO PAVA 261856Z AUTO 31018KT 10SM BKN012 BKN019 OVC025 02/01 A2987 RMK AO2 UPB08E19B43E47RAB32E43 SLP201 P0000 T00220006 FZRANO PAWM 261856Z AUTO 35005KT 10SM BKN060 06/M01 A2975 RMK AO2 SLP079 T00561006 PFEL 261856Z AUTO 06009KT 10SM BKN013 OVC065 04/01 A2977 RMK AO2 SLP080 T00390006 PFKT 261856Z AUTO 34013KT 10SM OVC021 01/M03 A2983 RMK AO2 SLP102 T00061028 FZRANO PFNO 261856Z AUTO 27004KT 10SM OVC005 02/01 A2979 RMK AO2 SLP087 T00220006 FZRANO PFSH 261856Z AUTO 20004KT 8SM OVC016 05/02 A2977 RMK AO2 SLP081 T00500017 PWINO $ PAAD 261855Z AUTO 06018KT 3SM BR OVC003 M05/M06 A2995 RMK AO2 T10511060 PAHX 261856Z AUTO 21006KT 10SM OVC026 08/04 A2973 RMK AO2 SLP068 T00830044 PAQH 261856Z AUTO 32013KT 10SM OVC018 04/00 A2984 RMK AO2 SLP104 T00390000 PWINO $ PAUT 261855Z AUTO 31024G30KT 10SM OVC020 05/03 A3002 RMK AO2 T00450026 PFCL 261856Z AUTO 32004KT 10SM SCT090 11/06 A2972 RMK AO2 SLP056 T01060056 TSNO PFKW 261856Z AUTO 30010KT 10SM BKN015 OVC025 03/00 A2980 RMK AO2 SLP092 T00330000 PFWS 261856Z AUTO 02008KT 10SM CLR 12/03 A2970 RMK AO2 SLP065 T01170028 PPIT 261856Z AUTO 31014KT 8SM -RA SCT014 BKN020 OVC026 03/01 A2981 RMK AO2 RAB53 SLP094 P0000 T00330011 TSNO